Hermagor, Austria
Current Conditions -  °F | °C
As of 6:20 PM on Tuesday 21 Oct 2014 (Local Time) from LOWK Reporting Station
Scattered Clouds Scattered Clouds  
Wind Chill: 61°   Ceiling: Unl
Heat Index: 61°   Visibility: 6mi
Dew Point: 54°   Wind: 2mph
Humidity: 77%   Direction: 60°ENE
Pressure: 29.77"   Gusts: NA
Location:  46.62°N, 13.36°E
Report Text: LOWK 211620Z 06002KT 9999 FEW040 SCT300 16/12 Q1008 NOSIG
Loading
Personal Weather Stations






























Interactive Weather Map
Tropical Storm Tracking
New forecast layout! Learn more

10-Day Weather Forecast

Advertisements
Track Severe Weather on mobile